Disclaimer

Please do not use the information listed here in-flight or in-navigation, as they are not provided to us by the airports but are provided by volunteers, so they might be outdated.

Search


Regions


Airport information page

Radio informations:
Tower (TWR) - 124.525 MHz
BERLIN MIL - 136.0 MHz
Ground (GND) - 121.925 MHz
BERLIN DIRECTOR - 136.1 MHz
BERLIN DEP - 120.625 MHz
BERLIN ARR - 119.625 MHz
BERLIN INFO - 132.65 MHz

Airport informations:
Latitude: 52° 33' 34.87" N
Longitude: 013° 17' 15.76" E
Elevation: 122 feet - 37 meters
Operating hours: 24 hour operations
Operating agency: Civil government, landing fees and diplomatic clearance may be required
Timezone: UTC+1(+2DT) - Last Sunday in March to last Sunday in October
Fuel: Jet A1, without icing nhibitor.

Runway information:
08R/26L - 7966 x 151 feet< - >2428 x 46 meters
08L/26R - 9918 x 151 feet< - >3023 x 46 meters

Recent METARs:
EDDT 172020Z 08004KT 040V110 CAVOK 00/M03 Q1037 NOSIG
EDDT 172050Z 08005KT 050V110 CAVOK M00/M03 Q1037 NOSIG
EDDT 172120Z 08004KT CAVOK M00/M03 Q1037 NOSIG

Airport on the map: